Time;durP1;ratioP1;P1;durP2;ratioP2;P2;SDS_P1;SDS_P2;PMS_P1;PMS_P2;Temp;Humidity;BMP_temperature;BMP_pressure;BME280_temperature;BME280_humidity;BME280_pressure;Samples;Min_cycle;Max_cycle;Signal;HPM_P1;HPM_P2
2022/09/03 00:02:19;;;;;;;6.18;2.30;;;;;;;12.61;53.06;99825.16;5033049;28;20059;-69
2022/09/03 00:05:04;;;;;;;5.68;2.40;;;;;;;12.55;53.16;99827.66;5011741;28;20159;-69
2022/09/03 00:07:46;;;;;;;4.05;2.55;;;;;;;12.42;53.20;99838.81;5010076;28;20046;-69
2022/09/03 00:10:14;;;;;;;;;;;;;;;12.39;53.46;99844.47;5010067;28;20052;-70
2022/09/03 00:12:42;;;;;;;5.03;2.30;;;;;;;12.12;54.60;99850.06;4977281;28;19925;-69
2022/09/03 00:15:17;;;;;;;3.20;2.25;;;;;;;11.54;55.40;99847.34;4993272;28;20042;-70
2022/09/03 00:17:48;;;;;;;7.57;2.60;;;;;;;11.75;55.46;99855.78;4977240;28;20529;-69
2022/09/03 00:20:24;;;;;;;3.55;2.45;;;;;;;11.95;55.03;99858.19;4993465;28;20128;-70
2022/09/03 00:22:53;;;;;;;4.05;2.50;;;;;;;11.80;54.99;99863.28;5009480;28;20042;-70
2022/09/03 00:25:24;;;;;;;3.13;2.55;;;;;;;11.89;55.37;99856.97;4993321;28;20042;-70
2022/09/03 00:27:54;;;;;;;2.58;2.35;;;;;;;11.98;54.52;99856.00;4993248;28;20041;-70
2022/09/03 00:30:20;;;;;;;7.20;2.42;;;;;;;11.87;54.50;99873.13;5009369;28;20049;-71
2022/09/03 00:32:46;;;;;;;6.32;2.70;;;;;;;11.69;54.67;99868.88;4993091;28;20041;-69
2022/09/03 00:35:34;;;;;;;3.75;2.75;;;;;;;11.83;54.82;99854.97;4993069;28;20053;-70
2022/09/03 00:38:00;;;;;;;8.70;2.75;;;;;;;11.64;54.89;99869.34;4976882;28;20049;-69
2022/09/03 00:40:54;;;;;;;5.50;2.50;;;;;;;11.93;54.74;99880.44;4961448;28;20080;-70
2022/09/03 00:43:31;;;;;;;5.25;2.60;;;;;;;11.81;54.62;99863.09;4960823;28;20050;-69
2022/09/03 00:46:25;;;;;;;4.65;2.80;;;;;;;11.87;55.13;99882.91;4993027;28;20072;-69
2022/09/03 00:49:00;;;;;;;2.90;2.50;;;;;;;11.43;55.11;99862.72;5009312;28;20112;-69
2022/09/03 00:51:33;;;;;;;5.05;2.92;;;;;;;11.80;55.04;99887.22;4993090;28;20149;-69
2022/09/03 00:54:08;;;;;;;8.30;2.50;;;;;;;11.77;55.13;99887.53;5009776;28;20060;-69
2022/09/03 00:56:49;;;;;;;3.40;2.65;;;;;;;11.80;54.78;99892.53;4996476;28;20128;-69
2022/09/03 00:59:46;;;;;;;5.93;2.70;;;;;;;11.78;55.00;99883.88;4980787;28;20061;-70
2022/09/03 01:02:32;;;;;;;3.22;2.78;;;;;;;11.74;55.04;99890.53;4996732;28;20192;-69
2022/09/03 01:05:10;;;;;;;5.18;2.55;;;;;;;11.73;55.03;99886.19;5036406;28;20881;-69
2022/09/03 01:08:07;;;;;;;4.15;2.90;;;;;;;11.68;55.33;99888.50;5019991;28;20057;-69
2022/09/03 01:10:58;;;;;;;3.90;2.67;;;;;;;11.71;55.22;99890.84;5019294;28;20052;-69
2022/09/03 01:13:52;;;;;;;5.18;2.95;;;;;;;11.65;55.12;99888.81;5036035;28;20516;-68
2022/09/03 01:16:34;;;;;;;4.22;2.65;;;;;;;11.67;55.08;99884.16;5048646;28;20064;-69
2022/09/03 01:19:08;;;;;;;3.95;2.83;;;;;;;11.59;55.64;99892.06;5035745;28;20045;-69
2022/09/03 01:21:33;;;;;;;6.30;4.13;;;;;;;11.34;55.75;99896.44;5036099;28;20492;-69
2022/09/03 01:24:06;;;;;;;4.03;3.25;;;;;;;11.32;55.51;99884.25;5019368;28;20140;-69
2022/09/03 01:26:42;;;;;;;5.15;2.78;;;;;;;11.66;55.30;99890.47;5003355;28;20202;-70
2022/09/03 01:29:28;;;;;;;4.90;2.97;;;;;;;11.45;55.91;99882.03;5054005;28;20037;-70
2022/09/03 01:32:07;;;;;;;4.63;3.00;;;;;;;11.46;55.96;99897.81;5018742;28;20055;-70
2022/09/03 01:35:05;;;;;;;5.00;3.20;;;;;;;11.42;56.08;99895.63;5019364;28;20037;-69
2022/09/03 01:37:58;;;;;;;5.10;2.85;;;;;;;11.62;55.51;99900.59;5002888;28;20448;-70
2022/09/03 01:42:12;;;;;;;4.22;3.47;;;;;;;11.67;55.38;99906.28;5018908;28;20132;-70
2022/09/03 01:44:09;;;;;;;4.63;2.90;;;;;;;11.64;55.44;99906.59;5035237;28;20098;-70
2022/09/03 01:46:44;;;;;;;3.97;2.78;;;;;;;11.42;55.81;99909.75;5018889;28;20110;-69
2022/09/03 01:49:37;;;;;;;4.80;2.80;;;;;;;11.45;55.94;99908.63;5036035;28;20045;-69
2022/09/03 01:52:17;;;;;;;3.38;2.63;;;;;;;11.49;56.04;99916.13;5035347;28;20045;-69
2022/09/03 01:54:51;;;;;;;3.47;2.55;;;;;;;11.48;55.61;99914.47;5051769;28;20056;-70
2022/09/03 01:57:41;;;;;;;5.72;2.70;;;;;;;11.52;55.33;99921.13;5018849;28;20037;-69
2022/09/03 02:00:15;;;;;;;4.57;2.50;;;;;;;11.49;55.08;99916.13;5035396;28;20045;-70
2022/09/03 02:02:43;;;;;;;3.75;2.80;;;;;;;11.38;55.35;99927.03;5051755;28;20040;-69
2022/09/03 02:05:28;;;;;;;3.60;2.70;;;;;;;11.39;55.12;99923.34;5049914;28;20151;-70
2022/09/03 02:07:59;;;;;;;2.97;2.63;;;;;;;11.37;55.41;99927.19;5016516;28;20084;-71
2022/09/03 02:10:28;;;;;;;;;;;;;;;11.51;54.78;99934.59;5049714;28;20067;-70
2022/09/03 02:13:08;;;;;;;3.60;2.70;;;;;;;11.39;55.11;99938.50;5049219;28;20019;-74
2022/09/03 02:15:36;;;;;;;3.38;3.08;;;;;;;11.26;55.68;99946.03;5032676;28;20057;-73
2022/09/03 02:18:04;;;;;;;5.20;3.20;;;;;;;11.10;55.73;99925.47;4999709;28;21028;-73
2022/09/03 02:20:30;;;;;;;3.53;2.90;;;;;;;11.02;55.66;99937.88;5049893;28;20053;-71
2022/09/03 02:22:57;;;;;;;4.38;2.90;;;;;;;11.17;55.63;99942.50;5001900;28;20106;-69
2022/09/03 02:25:29;;;;;;;8.38;3.20;;;;;;;11.19;55.35;99951.13;5034893;28;20393;-70
2022/09/03 02:27:55;;;;;;;3.60;2.90;;;;;;;10.96;55.61;99949.13;5018238;28;20500;-69
2022/09/03 02:30:21;;;;;;;4.50;2.90;;;;;;;10.92;55.65;99953.06;5001958;28;20089;-69
2022/09/03 02:32:47;;;;;;;7.07;2.97;;;;;;;10.88;55.56;99947.22;5001865;28;20423;-69
2022/09/03 02:35:12;;;;;;;5.05;3.38;;;;;;;10.90;55.71;99955.88;5034776;28;20049;-69
2022/09/03 02:37:38;;;;;;;5.50;3.60;;;;;;;10.85;55.83;99952.00;5001792;28;20570;-69
2022/09/03 02:40:07;;;;;;;4.35;3.33;;;;;;;10.88;55.94;99947.22;5001523;28;20040;-69
2022/09/03 02:42:33;;;;;;;7.60;3.35;;;;;;;10.85;55.96;99957.31;5034867;28;20579;-71
2022/09/03 02:45:20;;;;;;;6.30;3.30;;;;;;;11.07;55.89;99949.72;5034464;28;20053;-70
2022/09/03 02:47:47;;;;;;;5.25;3.13;;;;;;;11.02;55.92;99957.31;5001487;28;20387;-70
2022/09/03 02:50:12;;;;;;;4.53;3.47;;;;;;;10.74;55.94;99949.56;5001849;28;20071;-70
2022/09/03 02:52:39;;;;;;;6.90;3.30;;;;;;;10.86;55.84;99957.16;5001315;28;20064;-69
2022/09/03 02:55:05;;;;;;;6.63;3.80;;;;;;;10.90;55.93;99969.16;5001515;28;20048;-69
2022/09/03 02:57:30;;;;;;;5.85;3.60;;;;;;;10.93;55.88;99960.06;5017688;28;20076;-69
2022/09/03 02:59:57;;;;;;;7.63;3.40;;;;;;;10.92;55.97;99964.53;5017444;28;20496;-69
2022/09/03 03:02:24;;;;;;;6.18;3.78;;;;;;;10.96;55.91;99981.00;5001363;28;20131;-69
2022/09/03 03:04:49;;;;;;;5.80;3.83;;;;;;;11.00;55.83;99980.56;5017223;28;20568;-69
2022/09/03 03:07:15;;;;;;;7.78;3.47;;;;;;;11.07;55.44;99983.44;5001177;28;20056;-75
2022/09/03 03:09:41;;;;;;;9.63;3.55;;;;;;;11.09;55.60;99970.81;5017541;28;20072;-69
2022/09/03 03:12:08;;;;;;;4.80;3.50;;;;;;;11.12;55.54;99965.19;5000947;28;20053;-68
2022/09/03 03:14:34;;;;;;;5.53;3.47;;;;;;;10.94;55.94;99973.19;5015687;28;20043;-70
2022/09/03 03:17:00;;;;;;;5.82;3.55;;;;;;;10.96;56.03;99973.03;5031939;28;20048;-69
2022/09/03 03:19:25;;;;;;;5.03;3.60;;;;;;;10.97;55.97;99980.88;4998533;28;20500;-69
2022/09/03 03:21:51;;;;;;;7.72;3.70;;;;;;;11.01;56.01;99984.06;5000482;28;20135;-68
2022/09/03 03:24:17;;;;;;;8.48;4.07;;;;;;;11.02;56.05;99980.41;5000727;28;20448;-71
2022/09/03 03:26:43;;;;;;;6.47;3.85;;;;;;;11.22;55.56;99987.22;5050343;28;20591;-69
2022/09/03 03:29:14;;;;;;;6.15;3.22;;;;;;;11.50;55.13;99976.31;5017014;28;20505;-71
2022/09/03 03:31:39;;;;;;;4.18;3.10;;;;;;;11.35;54.93;99977.84;5033586;28;20049;-71
2022/09/03 03:34:05;;;;;;;4.43;3.40;;;;;;;11.36;54.80;99982.19;5033203;28;20090;-74
2022/09/03 03:36:32;;;;;;;5.97;3.38;;;;;;;11.17;54.70;99910.59;5016946;28;20045;-71
2022/09/03 03:39:00;;;;;;;7.75;4.80;;;;;;;11.57;54.92;99985.34;5019085;28;20610;-75
2022/09/03 03:41:30;;;;;;;3.60;2.88;;;;;;;11.70;54.58;99992.94;5000435;28;20048;-75
2022/09/03 03:43:59;;;;;;;3.72;2.80;;;;;;;11.71;54.38;99994.59;5033538;28;20136;-73
2022/09/03 03:46:29;;;;;;;4.82;3.05;;;;;;;11.80;54.33;99993.66;5033097;28;20066;-73
2022/09/03 03:48:54;;;;;;;6.93;3.03;;;;;;;11.59;54.18;99995.81;5033199;28;20103;-71
2022/09/03 03:51:20;;;;;;;3.83;3.30;;;;;;;11.53;54.47;99983.16;5000459;28;20420;-70
2022/09/03 03:53:46;;;;;;;17.10;2.75;;;;;;;11.65;54.33;100005.88;5050039;28;20459;-70
2022/09/03 03:56:14;;;;;;;3.05;2.70;;;;;;;11.88;54.16;100007.84;5000186;28;20143;-70
2022/09/03 03:58:42;;;;;;;4.28;3.10;;;;;;;11.79;54.24;100003.47;5049230;28;20122;-73
2022/09/03 04:01:10;;;;;;;5.80;3.00;;;;;;;11.70;54.42;99995.63;5032861;28;20144;-73
2022/09/03 04:03:37;;;;;;;5.55;3.00;;;;;;;11.70;54.57;100011.56;5016173;28;20060;-73
2022/09/03 04:06:04;;;;;;;3.10;2.55;;;;;;;11.62;54.80;100012.31;5049280;28;20504;-72
2022/09/03 04:08:33;;;;;;;4.72;2.90;;;;;;;11.75;54.96;100023.41;5031455;28;20512;-74
2022/09/03 04:11:04;;;;;;;3.78;2.80;;;;;;;11.79;54.83;100023.94;5048461;28;20061;-74
2022/09/03 04:13:31;;;;;;;3.85;3.00;;;;;;;11.65;55.02;100024.50;5031046;28;20094;-73
2022/09/03 04:16:08;;;;;;;3.65;2.85;;;;;;;11.92;54.76;100021.69;5015577;28;20056;-73
2022/09/03 04:18:35;;;;;;;4.47;2.78;;;;;;;11.82;54.82;100020.97;5048565;28;20041;-73
2022/09/03 04:21:08;;;;;;;3.22;2.80;;;;;;;11.79;54.65;100006.13;5032647;28;20082;-72
2022/09/03 04:23:36;;;;;;;3.42;2.67;;;;;;;12.05;54.50;100032.75;5015907;28;20040;-72
2022/09/03 04:26:02;;;;;;;4.60;2.80;;;;;;;12.09;54.28;100033.25;5015702;28;20102;-71
2022/09/03 04:28:28;;;;;;;3.67;2.72;;;;;;;11.98;54.55;100031.69;5048895;28;20458;-73
2022/09/03 04:30:54;;;;;;;3.75;2.78;;;;;;;12.16;54.22;100028.97;5015319;28;20045;-72
2022/09/03 04:33:20;;;;;;;3.90;2.60;;;;;;;12.22;53.96;100026.53;4999558;28;20535;-82
2022/09/03 04:35:46;;;;;;;4.50;2.40;;;;;;;12.29;53.63;100040.84;5049374;28;20106;-72
2022/09/03 04:38:11;;;;;;;3.47;2.80;;;;;;;12.36;53.63;100036.56;5016178;28;20051;-74
2022/09/03 04:40:38;;;;;;;5.88;2.50;;;;;;;12.25;53.84;100036.00;5015746;28;20231;-73
2022/09/03 04:43:03;;;;;;;5.03;2.50;;;;;;;12.30;53.79;100037.19;5015579;28;20045;-73
2022/09/03 04:45:32;;;;;;;2.92;2.33;;;;;;;12.45;53.45;100046.28;4999472;28;20060;-74
2022/09/03 04:48:01;;;;;;;2.75;2.20;;;;;;;12.79;53.29;100041.72;4999407;28;20455;-73
2022/09/03 04:50:28;;;;;;;4.40;2.30;;;;;;;12.66;53.42;100028.03;5048546;28;20041;-74
2022/09/03 04:53:04;;;;;;;2.45;2.20;;;;;;;13.00;52.52;100050.16;5048766;28;20041;-74
2022/09/03 04:55:35;;;;;;;2.97;2.33;;;;;;;13.07;52.71;100050.31;5048746;28;20048;-73
2022/09/03 04:58:01;;;;;;;2.80;2.13;;;;;;;12.87;52.61;100046.25;5048667;28;20045;-78
2022/09/03 05:00:27;;;;;;;4.18;2.30;;;;;;;13.00;52.68;100039.50;4999165;28;20068;-73
2022/09/03 05:02:55;;;;;;;3.70;2.28;;;;;;;12.93;51.94;100037.59;5032176;28;20057;-73
2022/09/03 05:05:20;;;;;;;7.13;2.42;;;;;;;13.02;51.87;100045.47;5032533;28;20068;-73
2022/09/03 05:07:46;;;;;;;10.23;2.53;;;;;;;13.12;51.63;100046.16;4999396;28;20120;-73
2022/09/03 05:10:19;;;;;;;3.80;2.40;;;;;;;13.34;51.53;100044.69;4999155;28;20447;-73
2022/09/03 05:12:46;;;;;;;2.85;2.30;;;;;;;13.41;51.16;100046.53;5016655;28;20135;-73
2022/09/03 05:15:13;;;;;;;5.18;2.30;;;;;;;13.48;51.38;100050.19;5015869;28;20045;-73
2022/09/03 05:17:38;;;;;;;3.13;2.22;;;;;;;13.51;50.76;100057.06;4999100;28;20051;-73
2022/09/03 05:20:08;;;;;;;6.22;2.95;;;;;;;13.51;50.78;100052.53;5015549;28;21000;-72
2022/09/03 05:22:34;;;;;;;2.38;2.10;;;;;;;13.68;50.67;100063.22;5048604;28;20060;-73
2022/09/03 05:24:59;;;;;;;5.88;2.33;;;;;;;13.74;50.37;100059.88;5032259;28;20122;-74
2022/09/03 05:27:25;;;;;;;3.33;2.08;;;;;;;13.85;50.40;100078.22;4999123;28;20100;-74
2022/09/03 05:29:51;;;;;;;4.68;1.90;;;;;;;13.96;49.47;100070.69;4999517;28;20040;-74
2022/09/03 05:32:17;;;;;;;3.75;2.00;;;;;;;13.92;49.21;100079.22;4999023;28;20493;-72
2022/09/03 05:34:43;;;;;;;4.18;2.10;;;;;;;14.03;49.14;100076.19;4999232;28;20115;-73
2022/09/03 05:37:10;;;;;;;2.13;1.90;;;;;;;14.13;49.32;100071.53;5032151;28;20107;-72
2022/09/03 05:39:36;;;;;;;2.58;1.60;;;;;;;14.09;48.95;100075.50;4999588;28;20463;-73
2022/09/03 05:42:02;;;;;;;2.28;1.65;;;;;;;14.25;48.74;100081.72;5000772;28;20041;-72
2022/09/03 05:44:29;;;;;;;1.60;1.50;;;;;;;14.33;49.23;100083.53;5002850;28;20501;-74
2022/09/03 05:46:54;;;;;;;2.90;1.80;;;;;;;14.41;48.48;100086.16;5002516;28;20041;-76
2022/09/03 05:49:20;;;;;;;5.80;1.58;;;;;;;14.65;48.09;100084.22;5018917;28;20056;-73
2022/09/03 05:51:46;;;;;;;2.28;1.60;;;;;;;14.57;48.21;100088.78;5002429;28;20045;-73
2022/09/03 05:54:12;;;;;;;2.90;1.30;;;;;;;14.90;47.31;100092.97;5051861;28;20400;-73
2022/09/03 05:56:39;;;;;;;1.83;1.40;;;;;;;15.18;46.79;100088.81;5035292;28;20379;-66
2022/09/03 05:59:08;;;;;;;2.33;1.48;;;;;;;15.33;46.51;100105.78;5034923;28;20056;-67
2022/09/03 06:01:39;;;;;;;2.15;1.95;;;;;;;15.47;46.01;100083.63;5018743;28;20161;-67
2022/09/03 06:04:05;;;;;;;;;;;;;;;15.81;45.47;100104.63;5035350;28;20059;-70
2022/09/03 06:06:33;;;;;;;2.53;1.40;;;;;;;15.54;45.72;100081.09;5006066;28;19974;-67
2022/09/03 06:09:01;;;;;;;6.07;2.13;;;;;;;15.53;45.96;100088.28;5018074;28;20049;-66
2022/09/03 06:11:28;;;;;;;5.72;1.75;;;;;;;15.54;45.50;100084.63;5040454;28;20120;-66
2022/09/03 06:13:55;;;;;;;2.47;1.30;;;;;;;15.70;45.36;100099.72;5016658;28;20044;-67
2022/09/03 06:16:21;;;;;;;2.30;1.20;;;;;;;15.88;44.77;100109.13;5011774;28;20045;-66
2022/09/03 06:18:48;;;;;;;4.05;1.50;;;;;;;16.05;44.17;100093.72;4993935;28;20038;-66
2022/09/03 06:21:14;;;;;;;2.65;1.33;;;;;;;16.24;43.32;100110.09;5010010;28;20192;-66
2022/09/03 06:23:40;;;;;;;4.10;1.10;;;;;;;16.42;43.00;100112.44;5027665;28;20056;-67
2022/09/03 06:26:11;;;;;;;5.15;1.40;;;;;;;16.85;43.52;100109.78;5031273;28;20033;-66
2022/09/03 06:28:39;;;;;;;3.88;1.25;;;;;;;16.83;42.81;100116.34;5013849;28;20077;-66
2022/09/03 06:31:07;;;;;;;2.97;1.17;;;;;;;16.76;42.52;100116.25;5013391;28;20046;-67
2022/09/03 06:33:36;;;;;;;1.38;0.80;;;;;;;16.88;42.03;100122.81;5030085;28;20537;-66
2022/09/03 06:36:04;;;;;;;1.00;0.98;;;;;;;16.90;41.70;100113.78;5029421;28;20045;-67
2022/09/03 06:38:32;;;;;;;3.47;0.90;;;;;;;16.98;41.63;100121.69;5026278;28;20053;-66
2022/09/03 06:41:03;;;;;;;1.35;1.05;;;;;;;17.26;41.75;100125.34;5028287;28;20037;-66
2022/09/03 06:43:29;;;;;;;;;;;;;;;17.59;40.78;100124.72;5028345;28;20132;-66
2022/09/03 06:46:00;;;;;;;2.65;0.90;;;;;;;17.46;40.62;100124.59;5026689;28;19929;-66
2022/09/03 06:48:27;;;;;;;2.97;1.00;;;;;;;17.57;40.96;100134.00;5029140;28;20528;-66
2022/09/03 06:50:57;;;;;;;1.98;1.30;;;;;;;17.68;40.17;100122.75;5029745;28;20405;-66
2022/09/03 06:53:25;;;;;;;1.58;0.75;;;;;;;17.86;39.41;100136.56;4996830;28;20053;-66
2022/09/03 06:55:59;;;;;;;1.02;0.82;;;;;;;17.95;38.09;100136.25;5013688;28;20456;-66
2022/09/03 06:58:31;;;;;;;4.38;1.00;;;;;;;18.09;38.07;100129.97;5014025;28;20061;-66
2022/09/03 07:01:01;;;;;;;1.02;0.90;;;;;;;18.25;37.70;100135.03;5013402;28;20107;-67
2022/09/03 07:03:27;;;;;;;1.58;0.90;;;;;;;18.45;37.18;100129.88;5037329;28;20570;-66
2022/09/03 07:05:53;;;;;;;1.08;0.70;;;;;;;18.77;36.65;100129.22;5049840;28;20041;-66
2022/09/03 07:08:19;;;;;;;2.22;0.90;;;;;;;19.07;35.96;100122.53;5033023;28;20045;-66
2022/09/03 07:10:46;;;;;;;3.15;0.90;;;;;;;19.31;35.82;100121.22;5016231;28;20040;-66
2022/09/03 07:13:13;;;;;;;3.10;0.80;;;;;;;19.37;35.08;100107.75;5032176;28;20044;-66
2022/09/03 07:15:40;;;;;;;1.50;0.90;;;;;;;19.53;34.69;100120.03;5049441;28;20045;-66
2022/09/03 07:18:05;;;;;;;2.15;0.90;;;;;;;19.74;34.13;100117.97;5049874;28;20037;-67
2022/09/03 07:20:31;;;;;;;1.70;0.88;;;;;;;19.96;34.43;100118.63;5016366;28;20051;-66
2022/09/03 07:22:57;;;;;;;1.80;0.70;;;;;;;20.20;33.52;100123.47;5049306;28;20041;-66
2022/09/03 07:25:25;;;;;;;3.20;0.80;;;;;;;20.51;32.80;100117.41;5016363;28;20044;-66
2022/09/03 07:27:51;;;;;;;4.43;0.85;;;;;;;20.55;32.60;100126.72;5016457;28;20052;-66
2022/09/03 07:30:19;;;;;;;2.25;0.80;;;;;;;20.52;31.02;100124.44;5049121;28;20049;-67
2022/09/03 07:32:46;;;;;;;5.18;1.50;;;;;;;21.23;30.73;100118.03;5000429;28;20595;-67
2022/09/03 07:35:12;;;;;;;1.45;1.00;;;;;;;23.06;28.45;100131.75;5032310;28;20041;-67
2022/09/03 07:37:42;;;;;;;0.82;0.80;;;;;;;25.63;24.70;100119.91;5050515;28;20114;-67
2022/09/03 07:40:11;;;;;;;1.87;1.00;;;;;;;28.25;20.87;100122.50;5015935;28;20484;-67
2022/09/03 07:42:39;;;;;;;0.85;0.70;;;;;;;30.49;18.78;100115.44;5031989;28;20036;-68
2022/09/03 07:45:09;;;;;;;1.30;0.80;;;;;;;32.15;16.77;100116.34;5000003;28;20048;-68
2022/09/03 07:47:35;;;;;;;1.27;0.70;;;;;;;33.43;15.64;100119.16;5049509;28;20048;-67
2022/09/03 07:50:03;;;;;;;2.55;1.10;;;;;;;34.38;14.57;100105.88;5031976;28;20132;-67
2022/09/03 07:52:29;;;;;;;1.23;0.80;;;;;;;35.50;13.09;100106.97;5048106;28;20045;-68
2022/09/03 07:54:55;;;;;;;1.55;1.00;;;;;;;36.47;12.30;100109.06;5048935;28;20588;-68
2022/09/03 07:57:21;;;;;;;2.22;0.80;;;;;;;38.11;11.56;100112.81;5031719;28;20119;-71
2022/09/03 07:59:47;;;;;;;1.40;0.77;;;;;;;39.83;9.85;100108.97;4999206;28;20047;-74
2022/09/03 08:02:13;;;;;;;6.65;1.00;;;;;;;40.87;9.02;100105.69;4998864;28;20044;-68
2022/09/03 08:04:39;;;;;;;0.68;0.60;;;;;;;41.95;8.46;100107.53;5015023;28;20053;-68
2022/09/03 08:07:05;;;;;;;3.00;1.30;;;;;;;42.34;7.73;100092.75;5034148;28;20045;-68
2022/09/03 08:09:31;;;;;;;1.85;0.80;;;;;;;42.01;8.23;100097.75;5047035;28;20107;-67
2022/09/03 08:11:57;;;;;;;1.27;0.65;;;;;;;41.96;7.93;100091.63;5028947;28;20037;-67
2022/09/03 08:14:23;;;;;;;2.95;0.98;;;;;;;43.11;7.36;100091.19;5045401;28;20094;-69
2022/09/03 08:16:49;;;;;;;0.50;0.50;;;;;;;42.69;7.53;100099.25;5046599;28;20709;-70
2022/09/03 08:19:17;;;;;;;1.45;0.63;;;;;;;43.18;7.04;100089.34;5012135;28;20059;-70
2022/09/03 08:21:42;;;;;;;0.90;0.68;;;;;;;43.38;6.86;100084.59;5044189;28;20493;-69
2022/09/03 08:24:13;;;;;;;1.77;0.68;;;;;;;43.29;6.61;100074.81;5030356;28;20120;-69
2022/09/03 08:26:41;;;;;;;1.73;0.70;;;;;;;42.59;6.72;100085.03;5047830;28;20036;-69
2022/09/03 08:29:07;;;;;;;2.35;0.73;;;;;;;41.90;7.14;100076.28;5048228;28;20049;-70
2022/09/03 08:31:35;;;;;;;1.35;0.70;;;;;;;42.21;6.97;100073.59;5031245;28;20044;-69
2022/09/03 08:34:05;;;;;;;3.30;0.98;;;;;;;42.63;6.59;100071.94;5047756;28;20045;-69
2022/09/03 08:36:33;;;;;;;1.20;0.82;;;;;;;41.85;7.11;100074.53;5047476;28;20409;-70
2022/09/03 08:39:03;;;;;;;2.95;0.90;;;;;;;41.44;7.27;100067.31;5048369;28;20133;-69
2022/09/03 08:41:38;;;;;;;3.42;1.10;;;;;;;41.25;7.36;100067.13;5048474;28;20068;-69
2022/09/03 08:44:23;;;;;;;6.85;0.90;;;;;;;42.79;6.55;100070.00;5031292;28;20262;-69
2022/09/03 08:46:58;;;;;;;2.45;0.82;;;;;;;42.76;6.50;100067.94;5049049;28;20041;-69
2022/09/03 08:49:36;;;;;;;3.63;0.90;;;;;;;43.52;5.80;100068.16;5030872;28;20170;-69
2022/09/03 08:52:06;;;;;;;2.83;0.68;;;;;;;41.46;6.75;100047.44;5031147;28;20493;-70
2022/09/03 08:54:32;;;;;;;2.97;0.95;;;;;;;41.56;6.79;100063.72;5047695;28;20032;-69
2022/09/03 08:57:01;;;;;;;1.33;0.70;;;;;;;42.70;6.42;100077.72;5044052;28;20053;-71
2022/09/03 08:59:30;;;;;;;1.75;0.88;;;;;;;43.37;5.78;100073.78;4996241;28;20037;-71
2022/09/03 09:02:41;;;;;;;2.90;1.20;;;;;;;41.41;6.22;100065.22;5028908;28;20049;-71
2022/09/03 09:05:39;;;;;;;7.70;2.65;;;;;;;39.39;7.70;100059.56;5027592;28;20057;-73
2022/09/03 09:08:32;;;;;;;1.00;0.90;;;;;;;39.26;8.00;100071.78;5044641;28;20048;-71
2022/09/03 09:11:05;;;;;;;2.58;0.82;;;;;;;41.03;7.16;100056.44;5011676;28;20393;-73
2022/09/03 09:13:42;;;;;;;19.23;8.20;;;;;;;41.77;7.40;100047.59;5044444;28;20048;-72
2022/09/03 09:16:20;;;;;;;4.35;1.70;;;;;;;41.31;6.94;100053.75;5045153;28;20045;-71
2022/09/03 09:19:13;;;;;;;1.35;1.08;;;;;;;41.16;7.79;100051.69;5015821;28;20168;-71
2022/09/03 09:21:46;;;;;;;1.25;0.80;;;;;;;38.78;8.25;100045.22;5048629;28;20466;-72
2022/09/03 09:24:22;;;;;;;1.27;1.00;;;;;;;38.74;8.49;100049.81;5048489;28;20147;-71
2022/09/03 09:26:54;;;;;;;3.83;2.08;;;;;;;37.35;9.23;100042.28;5047561;28;20127;-69
2022/09/03 09:29:20;;;;;;;2.80;0.70;;;;;;;37.70;8.99;100046.75;4999151;28;20045;-72
2022/09/03 09:31:45;;;;;;;3.05;0.85;;;;;;;37.48;8.92;100052.44;5032011;28;20045;-69
2022/09/03 09:34:14;;;;;;;5.15;0.90;;;;;;;36.90;9.27;100054.75;5031420;28;20033;-71
2022/09/03 09:36:48;;;;;;;2.78;0.82;;;;;;;35.92;10.15;100033.03;5015660;28;20122;-68
2022/09/03 09:39:16;;;;;;;0.93;0.73;;;;;;;34.69;10.84;100045.41;4999006;28;20044;-70
2022/09/03 09:41:43;;;;;;;3.63;0.80;;;;;;;34.35;11.04;100043.00;5011925;28;20080;-70
2022/09/03 09:44:18;;;;;;;2.88;0.82;;;;;;;33.43;11.98;100035.72;5044933;28;20073;-68
2022/09/03 09:46:44;;;;;;;2.45;0.82;;;;;;;33.68;11.48;100038.91;5028182;28;20068;-69
2022/09/03 09:49:30;;;;;;;2.78;1.15;;;;;;;33.45;11.63;100038.97;5011765;28;20516;-71
2022/09/03 09:52:13;;;;;;;1.55;0.82;;;;;;;32.54;12.29;100017.28;4995649;28;20048;-71
2022/09/03 09:54:40;;;;;;;3.72;0.90;;;;;;;31.81;12.92;100024.81;5028418;28;20128;-71
2022/09/03 09:57:13;;;;;;;3.45;0.93;;;;;;;31.08;13.85;100037.63;4978830;28;20152;-73
2022/09/03 09:59:39;;;;;;;1.98;1.17;;;;;;;30.31;13.83;100039.22;5011777;28;20045;-71
2022/09/03 10:02:16;;;;;;;4.68;0.93;;;;;;;30.73;13.69;100043.25;4995113;28;20619;-71
2022/09/03 10:04:44;;;;;;;1.77;0.90;;;;;;;31.47;13.11;100040.47;4978516;28;20551;-72
2022/09/03 10:07:31;;;;;;;5.68;1.67;;;;;;;31.36;13.29;100010.59;4995572;28;20440;-71
2022/09/03 10:10:19;;;;;;;4.43;1.10;;;;;;;30.84;13.64;100028.44;4978559;28;20056;-71
2022/09/03 10:13:25;;;;;;;2.00;0.80;;;;;;;31.25;13.66;100029.03;4994249;28;20126;-72
2022/09/03 10:16:00;;;;;;;15.13;1.42;;;;;;;33.04;12.14;100035.97;5033733;28;20912;-71
2022/09/03 10:19:11;;;;;;;2.55;0.90;;;;;;;36.35;9.97;100036.91;5028094;28;20034;-71
2022/09/03 10:21:49;;;;;;;5.80;1.00;;;;;;;36.27;9.62;100029.34;5045075;28;20049;-71
2022/09/03 10:24:26;;;;;;;7.82;0.88;;;;;;;34.60;10.97;100031.50;5030624;28;20060;-71
2022/09/03 10:26:52;;;;;;;2.17;0.75;;;;;;;32.60;11.82;100022.44;5047152;28;20119;-71
2022/09/03 10:29:21;;;;;;;0.68;0.65;;;;;;;31.39;12.98;100018.25;5013066;28;20044;-73
2022/09/03 10:32:02;;;;;;;3.58;0.90;;;;;;;30.02;13.96;100008.00;5030835;28;20040;-72
2022/09/03 10:35:00;;;;;;;3.53;0.98;;;;;;;29.77;14.32;100016.25;5014474;28;20132;-70
2022/09/03 10:37:34;;;;;;;5.75;1.92;;;;;;;30.45;14.02;100018.34;5013836;28;20045;-71
2022/09/03 10:40:29;;;;;;;0.90;0.80;;;;;;;31.95;12.57;100025.81;5030881;28;20098;-68
2022/09/03 10:43:28;;;;;;;0.90;0.70;;;;;;;32.80;11.80;100012.31;5048498;28;20053;-69
2022/09/03 10:46:18;;;;;;;6.20;1.30;;;;;;;32.03;12.00;100027.13;5048690;28;20697;-71
2022/09/03 10:49:09;;;;;;;5.22;1.10;;;;;;;30.98;13.28;100031.38;5048657;28;20076;-71
2022/09/03 10:51:39;;;;;;;2.80;0.80;;;;;;;29.41;14.82;100024.41;5014466;28;20055;-74
2022/09/03 10:54:11;;;;;;;3.22;1.20;;;;;;;28.60;15.39;100008.78;5030559;28;20056;-70
2022/09/03 10:56:43;;;;;;;1.23;1.05;;;;;;;27.80;16.73;100017.22;5013604;28;20045;-72
2022/09/03 10:59:22;;;;;;;2.65;1.52;;;;;;;26.93;17.58;100006.75;5014305;28;20052;-70
2022/09/03 11:01:51;;;;;;;2.10;0.90;;;;;;;26.30;17.64;100010.00;5031250;28;20106;-71
2022/09/03 11:04:29;;;;;;;1.65;0.98;;;;;;;26.14;17.78;100021.72;5030166;28;20122;-70
2022/09/03 11:07:09;;;;;;;1.20;0.90;;;;;;;25.60;18.70;100008.88;5029780;28;20155;-71
2022/09/03 11:09:58;;;;;;;2.63;0.73;;;;;;;25.21;18.58;100017.91;5030285;28;20048;-69
2022/09/03 11:12:28;;;;;;;3.30;0.80;;;;;;;24.92;19.19;100017.88;5012387;28;20045;-69
2022/09/03 11:15:04;;;;;;;7.97;4.72;;;;;;;24.92;19.91;100029.84;5013544;28;20053;-70
2022/09/03 11:17:39;;;;;;;5.32;1.38;;;;;;;24.77;19.66;100028.47;5048306;28;20501;-70
2022/09/03 11:20:14;;;;;;;6.15;1.15;;;;;;;24.53;20.06;100023.28;5046824;28;20120;-70
2022/09/03 11:22:42;;;;;;;2.15;1.15;;;;;;;24.36;19.69;100008.78;5047038;28;20083;-69
2022/09/03 11:25:10;;;;;;;2.03;0.85;;;;;;;24.56;19.29;100020.09;4996305;28;20136;-69
2022/09/03 11:27:42;;;;;;;2.78;0.88;;;;;;;25.39;18.76;100026.72;5015119;28;20043;-67
2022/09/03 11:30:13;;;;;;;1.50;0.70;;;;;;;26.00;17.91;100020.44;5016661;28;20524;-67
2022/09/03 11:32:55;;;;;;;3.28;0.80;;;;;;;26.19;17.64;100019.09;5053896;28;20040;-71
2022/09/03 11:35:30;;;;;;;1.80;0.70;;;;;;;26.44;17.42;100009.41;5013367;28;20411;-70
2022/09/03 11:38:05;;;;;;;1.90;0.60;;;;;;;26.73;17.36;100012.78;5029430;28;20053;-71
2022/09/03 11:40:39;;;;;;;3.60;0.80;;;;;;;26.97;16.88;100016.09;5029666;28;20045;-69
2022/09/03 11:43:27;;;;;;;4.20;0.90;;;;;;;27.24;16.93;100003.28;5032551;28;20049;-71
2022/09/03 11:46:12;;;;;;;2.40;1.20;;;;;;;26.92;16.90;99975.13;4998295;28;20532;-71
2022/09/03 11:48:47;;;;;;;0.82;0.82;;;;;;;26.99;17.43;99992.09;5030471;28;20139;-70
2022/09/03 11:51:29;;;;;;;4.07;0.90;;;;;;;26.71;17.44;99995.06;4996480;28;20049;-69
2022/09/03 11:54:13;;;;;;;3.33;1.00;;;;;;;26.47;18.63;99986.25;5047309;28;20102;-70